LiveATC.Net - Listen to live air traffic control over the Internet!


ICAO: LPPR  IATA: OPO   Airport: Porto Airport
City: Porto
Country: Portugal   Continent: Europe
LPPR METAR Weather: LPPR 191100Z 13007KT 100V160 9999 FEW014 SCT025 BKN040 15/13 Q1015
LPPR Flight Activity (FlightAware)

LPPR Approach #1
Feed Status: UP   Listeners: 0
Listen in your browser - HTML5 player (in browser, HTML5)
Click here to listen with your own player (launches your MP3 player)
LPPR Approach #1 Audio Archives
FacilityFrequency
Porto Approach121.105

LPPR Tower
Feed Status: UP   Listeners: 0
Listen in your browser - HTML5 player (in browser, HTML5)
Click here to listen with your own player (launches your MP3 player)
LPPR Tower Audio Archives
FacilityFrequency
Porto Tower118.005

NOTICE

Unauthorized use prohibited. See LiveATC.net Terms of Service


Find LiveATC Audio Streams


Airport/ARTCC Code

Frequency Search
(e.g., 124.400, 128.75)
Site-wide search
 


Browse LiveATC Feeds
Top 50 LiveATC Feeds
LiveATC Feed Map
Bad Weather Areas

LiveATC FAQ
Offer LiveATC feed
Contact LiveATC.net
Press Inquiries

LiveATC on iPhone
LiveATC on Android

Windows Phone
Windows 8/10

LiveATC Mobile
(Mobile browser)

ATC Audio Archives
Interesting Recordings

LiveATC Forums


Home Page
About LiveATC.net
Make a Donation
Terms of Use
Privacy Policy

Canadian Air Freqs

AIRMETs/SIGMETs

FAA Airport Status
Nat'l Airspace Status
Arrival Demand Charts


Server Software By:
Icecast.org
Liquidsoap